Flight Track Log - Related Links

Times and Time Zones

All times are in EDT time to prevent confusion due to time zone crossing. See the AAL963 flight status page for this flight to view local times or setup timezone preferences in your user account.

Time Position Orientation Groundspeed Altitude Reporting Facility
EDT Latitude Longitude Course Direction KTS MPH feet Rate Location/Type
Tue 09:13:36 PM 32.9280 -97.0520 352° North 192 221 1,800  Level FlightAware ADS-B
Tue 09:13:56 PM 32.9460 -97.0570 347° North 203 234 2,300 955 Climbing FlightAware ADS-B
Tue 09:14:20 PM 32.9710 -97.0650 345° North 237 273 2,500 833 Climbing FlightAware ADS-B
Tue 09:14:32 PM 32.9840 -97.0690 346° North 244 281 2,800 1,875 Climbing FlightAware ADS-B
Tue 09:14:52 PM 33.0030 -97.0770 341° North 242 278 3,500 2,143 Climbing FlightAware ADS-B
Tue 09:15:00 PM 33.0120 -97.0840 327° Northwest 244 281 3,800 1,875 Climbing FlightAware ADS-B
Tue 09:15:08 PM 33.0180 -97.0920 312° West 250 288 4,000 1,500 Climbing FlightAware ADS-B
Tue 09:15:16 PM 33.0240 -97.1020 306° West 256 295 4,200 1,500 Climbing FlightAware ADS-B
Tue 09:15:20 PM 33.0250 -97.1070 283° West 258 297 4,300 2,000 Climbing FlightAware ADS-B
Tue 09:15:28 PM 33.0270 -97.1190 281° West 263 303 4,600 2,211 Climbing FlightAware ADS-B
Tue 09:15:58 PM 33.0240 -97.1620 265° West 272 313 5,700 2,368 Climbing FlightAware ADS-B
Tue 09:16:06 PM 33.0210 -97.1750 255° West 274 315 6,100 2,400 Climbing FlightAware ADS-B
Tue 09:16:18 PM 33.0150 -97.1910 246° West 282 325 6,500 2,100 Climbing FlightAware ADS-B
Tue 09:16:26 PM 33.0090 -97.2010 234° Southwest 287 330 6,800 2,571 Climbing FlightAware ADS-B
Tue 09:16:46 PM 32.9910 -97.2270 230° Southwest 286 329 7,700 2,526 Climbing FlightAware ADS-B
Tue 09:17:04 PM 32.9760 -97.2490 231° Southwest 285 328 8,400 1,950 Climbing FlightAware ADS-B
Tue 09:17:26 PM 32.9560 -97.2720 224° Southwest 296 341 9,000 1,800 Climbing FlightAware ADS-B
Tue 09:17:34 PM 32.9470 -97.2780 209° Southwest 298 343 9,300 1,500 Climbing FlightAware ADS-B
Tue 09:17:42 PM 32.9380 -97.2810 196° South 301 346 9,400 857 Climbing FlightAware ADS-B
Tue 09:17:48 PM 32.9270 -97.2820 184° South 307 353 9,500 1,500 Climbing FlightAware ADS-B
Tue 09:18:10 PM 32.8950 -97.2790 175° South 317 365 10,100 1,571 Climbing FlightAware ADS-B
Tue 09:18:30 PM 32.8660 -97.2670 161° South 325 374 10,600 1,050 Climbing FlightAware ADS-B
Tue 09:18:50 PM 32.8380 -97.2490 152° Southeast 345 397 10,800 643 Climbing FlightAware ADS-B
Tue 09:19:26 PM 32.7880 -97.2090 146° Southeast 383 441 11,200 1,083 Climbing FlightAware ADS-B
Tue 09:20:02 PM 32.7330 -97.1650 146° Southeast 405 466 12,100 1,565 Climbing FlightAware ADS-B
Tue 09:20:35 PM 32.6810 -97.1250 147° Southeast 417 480 13,000 1,875 Climbing FlightAware ADS-B
Tue 09:21:06 PM 32.6290 -97.0840 146° Southeast 424 488 14,100 2,060 Climbing FlightAware ADS-B
Tue 09:21:42 PM 32.5710 -97.0380 146° Southeast 430 495 15,300 1,886 Climbing FlightAware ADS-B
Tue 09:22:16 PM 32.5120 -96.9930 147° Southeast 436 502 16,300 1,676 Climbing FlightAware ADS-B
Tue 09:22:50 PM 32.4560 -96.9490 146° Southeast 443 510 17,200 1,727 Climbing FlightAware ADS-B
Tue 09:23:22 PM 32.4000 -96.9050 146° Southeast 449 517 18,200 1,583 Climbing FlightAware ADS-B
Tue 09:24:02 PM 32.3300 -96.8510 147° Southeast 458 527 19,100 1,424 Climbing FlightAware ADS-B
Tue 09:24:21 PM 32.2946 -96.8259 149° Southeast 464 534 19,600 1,647 Climbing FlightAware ADS-B
Tue 09:24:53 PM 32.2307 -96.7947 158° South 468 539 20,500 1,569 Climbing FlightAware ADS-B
Tue 09:25:26 PM 32.1630 -96.7686 162° South 472 543 21,300 1,479 Climbing FlightAware ADS-B
Tue 09:26:06 PM 32.0783 -96.7370 162° South 478 550 22,300 1,521 Climbing FlightAware ADS-B
Tue 09:26:37 PM 32.0113 -96.7117 162° South 484 557 23,100 1,429 Climbing FlightAware ADS-B
Tue 09:27:09 PM 31.9437 -96.6861 162° South 491 565 23,800 1,333 Climbing FlightAware ADS-B
Tue 09:27:40 PM 31.8768 -96.6606 162° South 497 572 24,500 1,377 Climbing FlightAware ADS-B
Tue 09:28:10 PM 31.8097 -96.6336 161° South 503 579 25,200 1,377 Climbing FlightAware ADS-B
Tue 09:28:41 PM 31.7417 -96.6052 160° South 509 586 25,900 1,355 Climbing FlightAware ADS-B
Tue 09:29:12 PM 31.6734 -96.5769 161° South 513 590 26,600 1,258 Climbing FlightAware ADS-B
Tue 09:29:43 PM 31.6013 -96.5473 161° South 519 597 27,200 1,125 Climbing FlightAware ADS-B
Tue 09:30:16 PM 31.5278 -96.5174 161° South 525 604 27,800 1,143 Climbing FlightAware ADS-B
Tue 09:30:46 PM 31.4563 -96.4896 162° South 530 610 28,400 1,180 Climbing FlightAware ADS-B
Tue 09:31:17 PM 31.3841 -96.4630 163° South 535 616 29,000 1,180 Climbing FlightAware ADS-B
Tue 09:31:47 PM 31.3127 -96.4368 163° South 539 620 29,600 1,500 Climbing FlightAware ADS-B
Tue 09:32:17 PM 31.2419 -96.4106 162° South 533 613 30,500 1,756 Climbing FlightAware ADS-B
Tue 09:32:28 PM 31.2169 -96.3999 160° South 529 609 30,800 1,111 Climbing FlightAware ADS-B
Tue 09:32:44 PM 31.1808 -96.3775 152° Southeast 530 610 31,000 480 Climbing FlightAware ADS-B
Tue 09:32:53 PM 31.1625 -96.3622 144° Southeast 532 612 31,000  Level FlightAware ADS-B
Tue 09:33:03 PM 31.1453 -96.3443 138° Southeast 533 613 31,000  Level FlightAware ADS-B
Tue 09:33:11 PM 31.1305 -96.3258 133° Southeast 533 613 31,000  Level FlightAware ADS-B
Tue 09:33:42 PM 31.0859 -96.2549 126° Southeast 539 620 31,000  Level FlightAware ADS-B
Tue 09:34:13 PM 31.0413 -96.1820 126° Southeast 538 619 31,000  Level FlightAware ADS-B
Tue 09:34:43 PM 30.9969 -96.1093 125° Southeast 537 618 31,000  Level FlightAware ADS-B
Tue 09:35:14 PM 30.9536 -96.0383 125° Southeast 537 618 31,000  Level FlightAware ADS-B
Tue 09:35:44 PM 30.9102 -95.9677 126° Southeast 538 619 31,000  Level FlightAware ADS-B
Tue 09:36:15 PM 30.8643 -95.8936 126° Southeast 539 620 31,000  Level FlightAware ADS-B
Tue 09:36:45 PM 30.8205 -95.8231 126° Southeast 540 621 31,000  Level FlightAware ADS-B
Tue 09:37:16 PM 30.7758 -95.7512 126° Southeast 540 621 31,000  Level FlightAware ADS-B
Tue 09:37:46 PM 30.7313 -95.6797 126° Southeast 539 620 31,000  Level FlightAware ADS-B
Tue 09:38:19 PM 30.6831 -95.6026 126° Southeast 539 620 31,000  Level FlightAware ADS-B
Tue 09:38:50 PM 30.6384 -95.5312 126° Southeast 539 620 31,000  Level FlightAware ADS-B
Tue 09:39:27 PM 30.5836 -95.4437 126° Southeast 539 620 31,000  Level FlightAware ADS-B
Tue 09:39:58 PM 30.5385 -95.3717 126° Southeast 540 621 31,000  Level FlightAware ADS-B
Tue 09:40:28 PM 30.4939 -95.3010 126° Southeast 539 620 31,000  Level FlightAware ADS-B
Tue 09:40:59 PM 30.4494 -95.2301 126° Southeast 538 619 31,000  Level FlightAware ADS-B
Tue 09:41:29 PM 30.4049 -95.1596 126° Southeast 538 619 31,000  Level FlightAware ADS-B
Tue 09:42:00 PM 30.3597 -95.0881 126° Southeast 537 618 31,000  Level FlightAware ADS-B
Tue 09:43:00 PM 30.2708 -94.9477 126° Southeast 536 617 31,000  Level FlightAware ADS-B
Tue 09:43:23 PM 30.2302 -94.8839 126° Southeast 536 617 31,000  Level FlightAware ADS-B (EGLF / FAB)
Tue 09:43:31 PM 30.2263 -94.8776 126° Southeast 536 617 31,000  Level FlightAware ADS-B
Tue 09:43:53 PM 30.1822 -94.8085 126° Southeast 536 617 31,000  Level FlightAware ADS-B (EGLF / FAB)
Tue 09:44:01 PM 30.1815 -94.8074 126° Southeast 536 617 31,000  Level FlightAware ADS-B
Tue 09:44:23 PM 30.1392 -94.7409 126° Southeast 534 615 31,000  Level FlightAware ADS-B (EGLF / FAB)
Tue 09:44:32 PM 30.1369 -94.7375 127° Southeast 534 615 31,000  Level FlightAware ADS-B
Tue 09:45:02 PM 30.0928 -94.6684 126° Southeast 534 615 31,000  Level FlightAware ADS-B
Tue 09:45:22 PM 30.0517 -94.6040 126° Southeast 534 615 31,000  Level FlightAware ADS-B (EGLF / FAB)
Tue 09:45:32 PM 30.0489 -94.5996 126° Southeast 534 615 31,000  Level FlightAware ADS-B
Tue 09:46:02 PM 30.0044 -94.5304 127° Southeast 533 613 31,000  Level FlightAware ADS-B
Tue 09:46:22 PM 29.9644 -94.4679 126° Southeast 534 615 31,000  Level FlightAware ADS-B (EGLF / FAB)
Tue 09:46:32 PM 29.9600 -94.4611 127° Southeast 534 615 31,000  Level FlightAware ADS-B
Tue 09:46:48 PM 29.9364 -94.4246 127° Southeast 536 617 31,000  Level FlightAware ADS-B
Tue 09:46:55 PM 29.9262 -94.4108 130° Southeast 540 621 31,000  Level FlightAware ADS-B
Tue 09:47:00 PM 29.9170 -94.4006 136° Southeast 536 617 31,000  Level FlightAware ADS-B
Tue 09:47:30 PM 29.8601 -94.3466 141° Southeast 532 612 31,000  Level FlightAware ADS-B
Tue 09:47:33 PM 29.8415 -94.3295 141° Southeast 532 612 31,000  Level FlightAware ADS-B (EGLF / FAB)
Tue 09:48:01 PM 29.8010 -94.2918 141° Southeast 531 611 31,000  Level FlightAware ADS-B
Tue 09:48:09 PM 29.7767 -94.2687 140° Southeast 531 611 31,000  Level FlightAware ADS-B (EGLF / FAB)
Tue 09:48:31 PM 29.7440 -94.2371 140° Southeast 531 611 31,000  Level FlightAware ADS-B
Tue 09:48:43 PM 29.7072 -94.2009 139° Southeast 530 610 31,000  Level FlightAware ADS-B (EGLF / FAB)
Tue 09:49:01 PM 29.6881 -94.1819 139° Southeast 530 610 31,000  Level FlightAware ADS-B
Tue 09:49:13 PM 29.6510 -94.1450 139° Southeast 531 611 31,000  Level FlightAware ADS-B (EGLF / FAB)
Tue 09:49:31 PM 29.6324 -94.1263 139° Southeast 531 611 31,000  Level FlightAware ADS-B
Tue 09:49:58 PM 29.5814 -94.0772 140° Southeast 531 611 31,000  Level FlightAware ADS-B
Tue 09:50:29 PM 29.5229 -94.0246 142° Southeast 530 610 31,000  Level FlightAware ADS-B
Tue 09:50:59 PM 29.4631 -93.9709 142° Southeast 529 609 31,000  Level FlightAware ADS-B
Tue 09:51:10 PM 29.4285 -93.9396 142° Southeast 527 606 31,000  Level FlightAware ADS-B (EGLF / FAB)
Tue 09:51:31 PM 29.4027 -93.9162 142° Southeast 527 606 31,000  Level FlightAware ADS-B
Tue 09:52:01 PM 29.3452 -93.8640 142° Southeast 527 606 31,000  Level FlightAware ADS-B
Tue 09:52:15 PM 29.3048 -93.8273 142° Southeast 525 604 31,000  Level FlightAware ADS-B (EGLF / FAB)
Tue 09:52:31 PM 29.2875 -93.8115 142° Southeast 524 603 31,000  Level FlightAware ADS-B
Tue 09:53:07 PM 29.2194 -93.7496 142° Southeast 522 601 31,000  Level FlightAware ADS-B
Tue 09:53:39 PM 29.1593 -93.6951 142° Southeast 521 600 31,000  Level FlightAware ADS-B
Tue 09:54:16 PM 29.0890 -93.6316 142° Southeast 522 601 31,000  Level FlightAware ADS-B
Tue 09:54:49 PM 29.0900 -93.6250 80° East 528 608 31,000  Level FlightAware ADS-B
Tue 09:54:59 PM 29.0075 -93.5582 145° Southeast 522 601 31,000  Level FlightAware ADS-B
Tue 09:55:35 PM 28.9389 -93.4966 142° Southeast 523 602 31,000  Level FlightAware ADS-B
Tue 09:56:38 PM 28.9140 -93.4620 129° Southeast 528 608 31,000  Level FlightAware ADS-B
Tue 09:57:14 PM 28.8560 -93.4080 141° Southeast 528 608 31,000  Level FlightAware ADS-B
Tue 09:57:50 PM 28.7980 -93.3540 141° Southeast 528 608 31,000  Level FlightAware ADS-B
Tue 09:58:27 PM 28.7380 -93.2990 141° Southeast 528 608 31,000  Level FlightAware ADS-B
Tue 09:59:03 PM 28.6800 -93.2460 141° Southeast 528 608 31,000  Level FlightAware ADS-B
Tue 09:59:39 PM 28.6220 -93.1920 141° Southeast 528 608 31,000  Level FlightAware ADS-B
Tue 10:00:16 PM 28.5620 -93.1370 141° Southeast 528 608 31,000  Level FlightAware ADS-B
Tue 10:00:52 PM 28.5040 -93.0830 141° Southeast 528 608 31,000  Level FlightAware ADS-B
Tue 10:01:37 PM 28.2753 -92.9050 141° Southeast 518 596 31,000  Level Houston Center
Tue 10:02:38 PM 28.1642 -92.8058 142° Southeast 513 590 31,000 -49 Level Houston Center
Tue 10:03:39 PM 28.0506 -92.7067 142° Southeast 514 592 30,900 -49 Descending Houston Center
Tue 10:04:40 PM 27.9383 -92.6078 142° Southeast 513 590 30,900 49 Level Houston Center
Tue 10:05:41 PM 27.8031 -92.4908 143° Southeast 511 588 31,000 49 Climbing Houston Center
Tue 10:06:42 PM 27.6889 -92.3944 143° Southeast 512 589 31,000  Level Houston Center
Tue 10:07:42 PM 27.5764 -92.2956 142° Southeast 513 590 31,000  Level Houston Center
Tue 10:08:43 PM 27.4639 -92.2000 143° Southeast 509 586 31,000  Level Houston Center
Tue 10:09:44 PM 27.3506 -92.1019 142° Southeast 511 588 31,000 -49 Level Houston Center
Tue 10:10:45 PM 27.2375 -92.0053 143° Southeast 511 588 30,900  Descending Houston Center
Tue 10:11:46 PM 27.1253 -91.9058 142° Southeast 513 590 31,000 63 Climbing Houston Center
Tue 10:13:00 PM 26.9914 -91.7976 144° Southeast  Level FlightAware Approximate
Tue 10:20:00 PM 26.2299 -91.1887 145° Southeast  Level FlightAware Approximate
Tue 10:21:00 PM 26.1206 -91.1028 145° Southeast  Level FlightAware Approximate
Tue 10:22:00 PM 26.0112 -91.0171 145° Southeast  Level FlightAware Approximate
Tue 10:23:00 PM 25.9019 -90.9315 145° Southeast  Level FlightAware Approximate
Tue 10:24:00 PM 25.7924 -90.8461 145° Southeast  Level FlightAware Approximate
Tue 10:25:00 PM 25.6830 -90.7608 145° Southeast  Level FlightAware Approximate
Tue 10:26:00 PM 25.5734 -90.6757 145° Southeast  Level FlightAware Approximate
Tue 10:27:00 PM 25.4639 -90.5908 145° Southeast  Level FlightAware Approximate
Tue 10:28:00 PM 25.3542 -90.5060 145° Southeast  Level FlightAware Approximate
Tue 10:29:00 PM 25.2445 -90.4213 145° Southeast  Level FlightAware Approximate
Tue 10:30:00 PM 25.1348 -90.3369 145° Southeast  Level FlightAware Approximate
Tue 10:31:00 PM 25.0250 -90.2525 145° Southeast  Level FlightAware Approximate
Tue 10:32:00 PM 24.9153 -90.1681 145° Southeast  Level FlightAware Approximate
Tue 10:33:00 PM 24.8056 -90.0838 145° Southeast  Level FlightAware Approximate
Tue 10:34:00 PM 24.6959 -89.9997 145° Southeast  Level FlightAware Approximate
Tue 10:35:00 PM 24.5861 -89.9157 145° Southeast  Level FlightAware Approximate
Tue 10:36:00 PM 24.4786 -89.8285 137° Southeast  Level FlightAware Approximate
Tue 10:37:00 PM 24.3812 -89.7279 137° Southeast  Level FlightAware Approximate
Tue 10:38:00 PM 24.2838 -89.6274 137° Southeast  Level FlightAware Approximate
Tue 10:39:00 PM 24.1862 -89.5270 137° Southeast  Level FlightAware Approximate
Tue 10:40:00 PM 24.0886 -89.4269 137° Southeast  Level FlightAware Approximate
Tue 10:41:00 PM 23.9909 -89.3269 137° Southeast  Level FlightAware Approximate
Tue 10:42:00 PM 23.8932 -89.2270 137° Southeast  Level FlightAware Approximate
Tue 10:43:00 PM 23.7954 -89.1273 137° Southeast  Level FlightAware Approximate
Tue 10:44:00 PM 23.6975 -89.0277 137° Southeast  Level FlightAware Approximate
Tue 10:44:10 PM 23.4130 -89.0340 137° Southeast 501 577 33,000  Level FlightAware ADS-B
Tue 10:44:46 PM 23.3330 -88.9740 145° Southeast 501 577 33,000  Level FlightAware ADS-B
Tue 10:45:20 PM 23.2760 -88.9300 145° Southeast 501 577 33,000  Level FlightAware ADS-B
Tue 10:45:54 PM 23.2080 -88.8800 146° Southeast 503 579 33,000  Level FlightAware ADS-B
Tue 10:46:30 PM 23.1330 -88.8250 146° Southeast 503 579 33,000  Level FlightAware ADS-B
Tue 10:47:06 PM 23.0620 -88.7720 146° Southeast 504 580 33,000  Level FlightAware ADS-B
Tue 10:47:46 PM 22.9840 -88.7140 146° Southeast 505 581 33,000  Level FlightAware ADS-B
Tue 10:48:18 PM 22.9240 -88.6700 146° Southeast 502 578 33,000  Level FlightAware ADS-B
Tue 10:48:51 PM 22.8640 -88.6260 146° Southeast 502 578 33,000  Level FlightAware ADS-B
Tue 10:49:28 PM 22.8030 -88.5810 146° Southeast 502 578 33,000  Level FlightAware ADS-B
Tue 10:50:08 PM 22.7220 -88.5210 146° Southeast 503 579 33,000  Level FlightAware ADS-B
Tue 10:50:44 PM 22.6530 -88.4700 146° Southeast 502 578 33,000  Level FlightAware ADS-B
Tue 10:51:17 PM 22.5920 -88.4220 144° Southeast 502 578 33,000  Level FlightAware ADS-B
Tue 10:51:50 PM 22.5390 -88.3700 138° Southeast 502 578 33,000  Level FlightAware ADS-B
Tue 10:52:24 PM 22.4770 -88.3070 137° Southeast 502 578 33,000  Level FlightAware ADS-B
Tue 10:53:03 PM 22.4140 -88.2430 137° Southeast 503 579 33,000  Level FlightAware ADS-B
Tue 10:53:37 PM 22.3580 -88.1860 137° Southeast 503 579 33,000  Level FlightAware ADS-B
Tue 10:54:10 PM 22.3020 -88.1290 137° Southeast 504 580 33,000  Level FlightAware ADS-B
Tue 10:54:51 PM 22.2310 -88.0570 137° Southeast 502 578 33,000  Level FlightAware ADS-B
Tue 10:55:28 PM 22.1670 -87.9930 137° Southeast 501 577 33,000  Level FlightAware ADS-B
Tue 10:56:08 PM 22.1000 -87.9240 136° Southeast 499 574 33,000  Level FlightAware ADS-B
Tue 10:56:42 PM 22.0430 -87.8680 138° Southeast 498 573 33,000  Level FlightAware ADS-B
Tue 10:57:19 PM 21.9780 -87.8020 137° Southeast 499 574 33,000  Level FlightAware ADS-B
Tue 10:57:57 PM 21.9170 -87.7400 137° Southeast 497 572 33,000  Level FlightAware ADS-B
Tue 10:58:35 PM 21.8550 -87.6790 138° Southeast 497 572 33,000  Level FlightAware ADS-B
Tue 10:59:10 PM 21.7930 -87.6170 137° Southeast 496 571 33,000  Level FlightAware ADS-B
Tue 10:59:48 PM 21.7270 -87.5510 137° Southeast 496 571 33,000  Level FlightAware ADS-B
Tue 11:00:25 PM 21.6660 -87.4910 138° Southeast 493 567 33,000  Level FlightAware ADS-B
Tue 11:01:05 PM 21.6040 -87.4290 137° Southeast 492 566 33,000  Level FlightAware ADS-B
Tue 11:01:35 PM 21.5500 -87.3760 138° Southeast 491 565 33,000  Level FlightAware ADS-B
Tue 11:02:16 PM 21.4800 -87.3070 137° Southeast 491 565 33,000  Level FlightAware ADS-B
Tue 11:02:48 PM 21.4270 -87.2540 137° Southeast 492 566 33,000  Level FlightAware ADS-B
Tue 11:03:25 PM 21.3630 -87.1910 137° Southeast 493 567 33,000  Level FlightAware ADS-B
Tue 11:03:59 PM 21.3080 -87.1370 138° Southeast 493 567 33,000  Level FlightAware ADS-B
Tue 11:04:30 PM 21.2550 -87.0850 138° Southeast 492 566 33,000  Level FlightAware ADS-B
Tue 11:05:11 PM 21.1870 -87.0180 137° Southeast 489 563 33,000  Level FlightAware ADS-B
Tue 11:05:53 PM 21.1200 -86.9520 137° Southeast 488 562 33,000  Level FlightAware ADS-B
Tue 11:06:25 PM 21.0640 -86.8970 137° Southeast 489 563 33,000  Level FlightAware ADS-B
Tue 11:07:01 PM 21.0030 -86.8370 137° Southeast 489 563 33,000  Level FlightAware ADS-B
Tue 11:07:38 PM 20.9420 -86.7780 138° Southeast 488 562 33,000  Level FlightAware ADS-B
Tue 11:08:14 PM 20.8810 -86.7190 138° Southeast 489 563 33,000  Level FlightAware ADS-B
Tue 11:08:51 PM 20.8190 -86.6580 137° Southeast 488 562 33,000  Level FlightAware ADS-B
Tue 11:09:28 PM 20.7590 -86.6000 138° Southeast 489 563 33,000  Level FlightAware ADS-B
Tue 11:10:09 PM 20.6880 -86.5320 138° Southeast 490 564 33,000  Level FlightAware ADS-B
Tue 11:10:55 PM 20.5990 -86.4460 138° Southeast 489 563 33,000  Level FlightAware ADS-B
Tue 11:11:27 PM 20.5460 -86.3950 138° Southeast 490 564 33,000  Level FlightAware ADS-B
Tue 11:11:59 PM 20.4920 -86.3430 138° Southeast 487 560 33,000  Level FlightAware ADS-B
Tue 11:12:42 PM 20.4440 -86.2970 138° Southeast 487 560 33,000  Level FlightAware ADS-B
Tue 11:13:29 PM 20.3750 -86.2280 137° Southeast 486 559 33,000  Level FlightAware ADS-B
Tue 11:14:05 PM 20.2960 -86.1520 138° Southeast 485 558 33,000  Level FlightAware ADS-B
Tue 11:14:40 PM 20.2330 -86.0930 139° Southeast 487 560 33,000  Level FlightAware ADS-B
Tue 11:15:21 PM 20.1540 -86.0170 138° Southeast 487 560 33,000  Level FlightAware ADS-B
Tue 11:15:57 PM 20.0930 -85.9600 139° Southeast 487 560 33,000  Level FlightAware ADS-B
Tue 11:16:29 PM 20.0390 -85.9070 137° Southeast 488 562 33,000  Level FlightAware ADS-B
Tue 11:17:07 PM 19.9750 -85.8470 139° Southeast 488 562 33,000  Level FlightAware ADS-B
Tue 11:17:39 PM 19.9220 -85.7970 138° Southeast 487 560 33,000  Level FlightAware ADS-B
Tue 11:18:15 PM 19.8610 -85.7390 138° Southeast 488 562 33,000  Level FlightAware ADS-B
Tue 11:18:51 PM 19.7990 -85.6810 139° Southeast 487 560 33,000  Level FlightAware ADS-B
Tue 11:19:25 PM 19.7420 -85.6280 139° Southeast 487 560 33,000  Level FlightAware ADS-B
Tue 11:19:55 PM 19.6940 -85.5820 138° Southeast 487 560 33,000  Level FlightAware ADS-B
Tue 11:20:34 PM 19.6380 -85.5290 138° Southeast 487 560 33,000  Level FlightAware ADS-B
Tue 11:21:18 PM 19.5600 -85.4550 138° Southeast 485 558 33,000  Level FlightAware ADS-B
Tue 11:21:52 PM 19.4960 -85.3960 139° Southeast 486 559 33,000  Level FlightAware ADS-B
Tue 11:22:26 PM 19.4380 -85.3430 139° Southeast 486 559 33,000  Level FlightAware ADS-B
Tue 11:23:04 PM 19.3730 -85.2820 138° Southeast 487 560 33,000  Level FlightAware ADS-B
Tue 11:23:45 PM 19.3160 -85.2270 138° Southeast 487 560 33,000  Level FlightAware ADS-B
Tue 11:24:21 PM 19.2640 -85.1780 138° Southeast 487 560 33,000  Level FlightAware ADS-B
Tue 11:24:57 PM 19.2130 -85.1290 138° Southeast 487 560 33,000  Level FlightAware ADS-B
Tue 11:25:33 PM 19.1620 -85.0800 138° Southeast 487 560 33,000  Level FlightAware ADS-B
Tue 11:26:09 PM 19.1110 -85.0310 138° Southeast 487 560 33,000  Level FlightAware ADS-B
Tue 11:26:45 PM 19.0590 -84.9830 139° Southeast 487 560 33,000  Level FlightAware ADS-B
Tue 11:27:21 PM 19.0080 -84.9340 138° Southeast 487 560 33,000  Level FlightAware ADS-B
Tue 11:27:57 PM 18.9570 -84.8850 138° Southeast 487 560 33,000  Level FlightAware ADS-B
Tue 11:28:33 PM 18.9060 -84.8360 138° Southeast 487 560 33,000  Level FlightAware ADS-B
Tue 11:29:09 PM 18.8540 -84.7880 139° Southeast 487 560 33,000  Level FlightAware ADS-B
Tue 11:29:45 PM 18.8030 -84.7390 138° Southeast 487 560 33,000  Level FlightAware ADS-B
Tue 11:30:21 PM 18.7520 -84.6900 138° Southeast 487 560 33,000  Level FlightAware ADS-B
Tue 11:30:57 PM 18.7010 -84.6410 138° Southeast 487 560 33,000  Level FlightAware ADS-B
Tue 11:31:34 PM 18.6480 -84.5910 138° Southeast 487 560 33,000  Level FlightAware ADS-B
Tue 11:32:10 PM 18.5970 -84.5430 138° Southeast 487 560 33,000  Level FlightAware ADS-B
Tue 11:32:46 PM 18.5460 -84.4940 138° Southeast 487 560 33,000 26 Level FlightAware ADS-B
Tue 11:35:00 PM 18.3316 -84.2838 137° Southeast  Level Estimated
Tue 11:36:00 PM 18.2355 -84.1898 137° Southeast  Level Estimated
Tue 11:37:00 PM 18.1394 -84.0960 137° Southeast  Level Estimated
Tue 11:38:00 PM 18.0432 -84.0022 137° Southeast  Level Estimated
Tue 11:39:00 PM 17.9470 -83.9086 137° Southeast  Level Estimated
Tue 11:40:00 PM 17.8508 -83.8150 137° Southeast  Level Estimated
Tue 11:41:00 PM 17.7545 -83.7216 137° Southeast  Level Estimated
Tue 11:42:00 PM 17.6581 -83.6282 137° Southeast  Level Estimated
Tue 11:43:00 PM 17.5618 -83.5350 137° Southeast  Level Estimated
Tue 11:44:00 PM 17.4653 -83.4418 137° Southeast  Level Estimated
Tue 11:45:00 PM 17.3689 -83.3488 137° Southeast  Level Estimated
Tue 11:46:00 PM 17.2723 -83.2558 137° Southeast  Level Estimated
Tue 11:47:00 PM 17.1758 -83.1630 137° Southeast  Level Estimated
Tue 11:48:00 PM 17.0792 -83.0702 137° Southeast  Level Estimated
Tue 11:49:00 PM 16.9825 -82.9775 137° Southeast  Level Estimated
Tue 11:50:00 PM 16.8859 -82.8850 138° Southeast  Level Estimated
Tue 11:51:00 PM 16.7891 -82.7925 138° Southeast  Level Estimated
Tue 11:52:00 PM 16.6924 -82.7001 138° Southeast  Level Estimated
Tue 11:53:00 PM 16.5955 -82.6078 138° Southeast  Level Estimated
Tue 11:54:00 PM 16.4987 -82.5156 138° Southeast  Level Estimated
Tue 11:55:00 PM 16.4018 -82.4236 138° Southeast  Level Estimated
Tue 11:56:00 PM 16.3049 -82.3315 138° Southeast  Level Estimated
Tue 11:57:00 PM 16.2079 -82.2396 138° Southeast  Level Estimated
Tue 11:58:00 PM 16.1109 -82.1478 138° Southeast  Level Estimated
Tue 11:59:00 PM 16.0138 -82.0561 138° Southeast  Level Estimated
Wed 12:00:00 AM 15.9167 -81.9644 138° Southeast  Level Estimated
Wed 12:01:00 AM 15.8196 -81.8728 138° Southeast  Level Estimated
Wed 12:02:00 AM 15.7225 -81.7814 138° Southeast  Level Estimated
Wed 12:03:00 AM 15.6252 -81.6900 138° Southeast  Level Estimated
Wed 12:04:00 AM 15.5280 -81.5987 138° Southeast  Level Estimated
Wed 12:05:00 AM 15.4307 -81.5075 138° Southeast  Level Estimated
Wed 12:06:00 AM 15.3334 -81.4164 138° Southeast  Level Estimated
Wed 12:07:00 AM 15.2361 -81.3253 138° Southeast  Level Estimated
Wed 12:08:00 AM 15.1387 -81.2344 138° Southeast  Level Estimated
Wed 12:09:00 AM 15.0412 -81.1435 138° Southeast  Level Estimated
Wed 12:10:00 AM 14.9438 -81.0527 138° Southeast  Level Estimated
Wed 12:11:00 AM 14.8463 -80.9620 138° Southeast  Level Estimated
Wed 12:12:00 AM 14.7487 -80.8714 138° Southeast  Level Estimated
Wed 12:13:00 AM 14.6512 -80.7808 138° Southeast  Level Estimated
Wed 12:14:00 AM 14.5536 -80.6904 138° Southeast  Level Estimated
Wed 12:15:00 AM 14.4559 -80.6000 138° Southeast  Level Estimated
Wed 12:16:00 AM 14.3583 -80.5097 138° Southeast  Level Estimated
Wed 12:17:00 AM 14.2606 -80.4195 138° Southeast  Level Estimated
Wed 12:18:00 AM 14.1628 -80.3293 138° Southeast  Level Estimated
Wed 12:19:00 AM 14.0651 -80.2393 138° Southeast  Level Estimated
Wed 12:20:00 AM 13.9672 -80.1493 138° Southeast  Level Estimated
Wed 12:21:00 AM 13.8694 -80.0593 138° Southeast  Level Estimated
Wed 12:22:00 AM 13.7715 -79.9695 138° Southeast  Level Estimated
Wed 12:23:00 AM 13.6736 -79.8797 138° Southeast  Level Estimated
Wed 12:24:00 AM 13.5757 -79.7900 138° Southeast  Level Estimated
Wed 12:25:00 AM 13.4775 -79.7003 138° Southeast  Level Estimated
Wed 12:26:00 AM 13.3794 -79.6106 138° Southeast  Level Estimated
Wed 12:27:00 AM 13.2812 -79.5210 138° Southeast  Level Estimated
Wed 12:28:00 AM 13.1829 -79.4314 138° Southeast  Level Estimated
Wed 12:29:00 AM 13.0847 -79.3419 138° Southeast  Level Estimated
Wed 12:30:00 AM 12.9864 -79.2525 138° Southeast  Level Estimated
Wed 12:31:00 AM 12.8880 -79.1632 138° Southeast  Level Estimated
Wed 12:32:00 AM 12.7897 -79.0739 138° Southeast  Level Estimated
Wed 12:33:00 AM 12.6913 -78.9847 139° Southeast  Level Estimated
Wed 12:34:00 AM 12.5928 -78.8956 139° Southeast  Level Estimated
Wed 12:35:00 AM 12.4944 -78.8065 139° Southeast  Level Estimated
Wed 12:36:00 AM 12.3959 -78.7175 139° Southeast  Level Estimated
Wed 12:37:00 AM 12.2974 -78.6286 139° Southeast  Level Estimated
Wed 12:38:00 AM 12.1989 -78.5397 139° Southeast  Level Estimated
Wed 12:39:00 AM 12.1003 -78.4509 139° Southeast  Level Estimated
Wed 12:40:00 AM 12.0017 -78.3622 139° Southeast  Level Estimated
Wed 12:41:00 AM 11.9031 -78.2735 139° Southeast  Level Estimated
Wed 12:42:00 AM 11.8045 -78.1849 139° Southeast  Level Estimated
Wed 12:43:00 AM 11.7058 -78.0964 139° Southeast  Level Estimated
Wed 12:44:00 AM 11.6071 -78.0079 139° Southeast  Level Estimated
Wed 12:45:00 AM 11.5083 -77.9195 139° Southeast  Level Estimated
Wed 12:46:00 AM 11.4096 -77.8311 139° Southeast  Level Estimated
Wed 12:47:00 AM 11.3108 -77.7429 139° Southeast  Level Estimated
Wed 12:48:00 AM 11.2120 -77.6546 139° Southeast  Level Estimated
Wed 12:49:00 AM 11.1131 -77.5665 139° Southeast  Level Estimated
Wed 12:49:45 AM 10.7190 -77.1930 139° Southeast 481 554 35,000  Level FlightAware ADS-B
Wed 12:50:00 AM 11.0143 -77.4783 139° Southeast  Level Estimated
Wed 12:50:20 AM 10.6620 -77.1400 138° Southeast 479 551 35,000  Level FlightAware ADS-B
Wed 12:50:58 AM 10.6090 -77.0900 137° Southeast 479 551 35,000  Level FlightAware ADS-B
Wed 12:51:35 AM 10.5580 -77.0410 137° Southeast 479 551 35,000  Level FlightAware ADS-B
Wed 12:52:15 AM 10.4750 -76.9660 138° Southeast 481 554 35,000  Level FlightAware ADS-B
Wed 12:52:55 AM 10.4070 -76.9020 137° Southeast 479 551 35,000  Level FlightAware ADS-B
Wed 12:53:30 AM 10.3490 -76.8490 138° Southeast 477 549 35,000  Level FlightAware ADS-B
Wed 12:54:05 AM 10.2940 -76.7980 138° Southeast 479 551 35,000  Level FlightAware ADS-B
Wed 12:54:35 AM 10.2460 -76.7530 137° Southeast 479 551 35,000  Level FlightAware ADS-B
Wed 12:55:16 AM 10.1800 -76.6920 138° Southeast 483 556 35,000  Level FlightAware ADS-B
Wed 12:55:51 AM 10.1260 -76.6410 137° Southeast 484 557 35,000  Level FlightAware ADS-B
Wed 12:56:25 AM 10.0690 -76.5890 138° Southeast 488 562 35,000  Level FlightAware ADS-B
Wed 12:57:00 AM 10.0040 -76.5290 138° Southeast 488 562 35,000  Level FlightAware ADS-B
Wed 12:57:35 AM 9.9440 -76.4730 137° Southeast 488 562 35,000  Level FlightAware ADS-B
Wed 12:58:16 AM 9.8780 -76.4120 138° Southeast 488 562 35,000  Level FlightAware ADS-B
Wed 12:59:03 AM 9.8040 -76.3430 137° Southeast 488 562 35,000  Level FlightAware ADS-B
Wed 12:59:40 AM 9.7360 -76.2810 138° Southeast 487 560 35,000  Level FlightAware ADS-B
Wed 01:00:15 AM 9.6830 -76.2320 138° Southeast 487 560 35,000  Level FlightAware ADS-B
Wed 01:00:50 AM 9.6250 -76.1790 138° Southeast 486 559 35,000  Level FlightAware ADS-B
Wed 01:01:25 AM 9.5650 -76.1230 137° Southeast 486 559 35,000  Level FlightAware ADS-B
Wed 01:02:10 AM 9.4900 -76.0540 138° Southeast 487 560 35,000  Level FlightAware ADS-B
Wed 01:02:40 AM 9.4360 -76.0040 138° Southeast 487 560 35,000  Level FlightAware ADS-B
Wed 01:03:17 AM 9.3800 -75.9530 138° Southeast 486 559 35,000  Level FlightAware ADS-B
Wed 01:03:50 AM 9.3190 -75.8960 137° Southeast 487 560 35,000  Level FlightAware ADS-B
Wed 01:04:25 AM 9.2630 -75.8440 137° Southeast 488 562 35,000  Level FlightAware ADS-B
Wed 01:05:16 AM 9.1810 -75.7690 138° Southeast 488 562 35,000  Level FlightAware ADS-B
Wed 01:05:55 AM 9.1120 -75.7060 138° Southeast 488 562 35,000  Level FlightAware ADS-B
Wed 01:06:36 AM 9.0470 -75.6460 138° Southeast 489 563 35,000  Level FlightAware ADS-B
Wed 01:07:24 AM 8.9780 -75.5830 138° Southeast 489 563 35,000  Level FlightAware ADS-B
Wed 01:07:55 AM 8.9100 -75.5200 138° Southeast 489 563 35,000  Level FlightAware ADS-B
Wed 01:08:46 AM 8.8250 -75.4420 138° Southeast 489 563 35,000  Level FlightAware ADS-B
Wed 01:09:20 AM 8.7690 -75.3910 138° Southeast 491 565 35,000  Level FlightAware ADS-B
Wed 01:10:10 AM 8.6820 -75.3120 138° Southeast 491 565 35,000  Level FlightAware ADS-B
Wed 01:10:51 AM 8.6160 -75.2510 138° Southeast 493 567 35,000  Level FlightAware ADS-B
Wed 01:11:30 AM 8.5480 -75.1890 138° Southeast 492 566 35,000  Level FlightAware ADS-B
Wed 01:12:06 AM 8.4910 -75.1360 137° Southeast 492 566 35,000  Level FlightAware ADS-B
Wed 01:12:45 AM 8.4220 -75.0740 138° Southeast 491 565 35,000  Level FlightAware ADS-B
Wed 01:13:20 AM 8.3620 -75.0190 138° Southeast 489 563 35,000  Level FlightAware ADS-B
Wed 01:13:55 AM 8.3030 -74.9640 137° Southeast 487 560 35,000  Level FlightAware ADS-B
Wed 01:14:30 AM 8.2490 -74.9150 138° Southeast 486 559 35,000  Level FlightAware ADS-B
Wed 01:15:05 AM 8.1860 -74.8570 138° Southeast 486 559 35,000  Level FlightAware ADS-B
Wed 01:15:40 AM 8.1290 -74.8050 138° Southeast 486 559 35,000  Level FlightAware ADS-B
Wed 01:16:11 AM 8.0820 -74.7630 138° Southeast 486 559 35,000  Level FlightAware ADS-B
Wed 01:16:55 AM 8.0010 -74.6890 138° Southeast 486 559 35,000  Level FlightAware ADS-B
Wed 01:17:30 AM 7.9440 -74.6370 138° Southeast 486 559 35,000  Level FlightAware ADS-B
Wed 01:18:10 AM 7.8790 -74.5780 138° Southeast 486 559 35,000  Level FlightAware ADS-B
Wed 01:18:45 AM 7.8210 -74.5250 138° Southeast 487 560 35,000  Level FlightAware ADS-B
Wed 01:19:15 AM 7.7680 -74.4760 138° Southeast 488 562 35,000  Level FlightAware ADS-B
Wed 01:19:50 AM 7.7090 -74.4230 138° Southeast 486 559 35,000  Level FlightAware ADS-B
Wed 01:20:30 AM 7.6470 -74.3670 138° Southeast 486 559 35,000  Level FlightAware ADS-B
Wed 01:21:05 AM 7.5830 -74.3090 138° Southeast 486 559 35,000  Level FlightAware ADS-B
Wed 01:21:35 AM 7.5330 -74.2630 138° Southeast 486 559 35,000  Level FlightAware ADS-B
Wed 01:22:15 AM 7.4670 -74.2030 138° Southeast 485 558 35,000  Level FlightAware ADS-B
Wed 01:22:50 AM 7.4090 -74.1510 138° Southeast 484 557 35,000  Level FlightAware ADS-B
Wed 01:23:20 AM 7.3590 -74.1050 138° Southeast 484 557 35,000  Level FlightAware ADS-B
Wed 01:23:50 AM 7.3110 -74.0620 138° Southeast 484 557 35,000  Level FlightAware ADS-B
Wed 01:24:45 AM 7.2290 -73.9880 138° Southeast 484 557 35,000  Level FlightAware ADS-B
Wed 01:25:15 AM 7.1670 -73.9310 138° Southeast 486 559 35,000  Level FlightAware ADS-B
Wed 01:25:50 AM 7.1090 -73.8790 138° Southeast 486 559 35,000  Level FlightAware ADS-B
Wed 01:26:28 AM 7.0550 -73.8300 138° Southeast 486 559 35,000  Level FlightAware ADS-B
Wed 01:26:55 AM 6.9930 -73.7870 145° Southeast 482 555 35,000  Level FlightAware ADS-B
Wed 01:27:30 AM 6.9300 -73.7520 151° Southeast 482 555 35,000  Level FlightAware ADS-B
Wed 01:28:06 AM 6.8540 -73.7110 152° Southeast 484 557 35,000  Level FlightAware ADS-B
Wed 01:28:38 AM 6.7910 -73.6770 152° Southeast 482 555 35,000  Level FlightAware ADS-B
Wed 01:29:12 AM 6.7230 -73.6400 152° Southeast 483 556 35,000  Level FlightAware ADS-B
Wed 01:29:50 AM 6.6480 -73.6000 152° Southeast 482 555 35,000  Level FlightAware ADS-B
Wed 01:30:26 AM 6.5780 -73.5620 152° Southeast 481 554 35,000  Level FlightAware ADS-B
Wed 01:30:58 AM 6.5150 -73.5280 152° Southeast 481 554 35,000  Level FlightAware ADS-B
Wed 01:31:34 AM 6.4450 -73.4900 152° Southeast 478 550 35,000  Level FlightAware ADS-B
Wed 01:32:10 AM 6.3740 -73.4510 151° Southeast 480 552 35,000  Level FlightAware ADS-B
Wed 01:32:46 AM 6.3030 -73.4130 152° Southeast 480 552 35,000  Level FlightAware ADS-B
Wed 01:33:18 AM 6.2410 -73.3790 151° Southeast 481 554 35,000  Level FlightAware ADS-B
Wed 01:33:54 AM 6.1700 -73.3410 152° Southeast 480 552 35,000  Level FlightAware ADS-B
Wed 01:34:37 AM 6.0930 -73.2990 152° Southeast 479 551 35,000  Level FlightAware ADS-B
Wed 01:35:14 AM 6.0320 -73.2650 151° Southeast 479 551 35,000  Level FlightAware ADS-B
Wed 01:35:50 AM 5.9720 -73.2320 151° Southeast 479 551 35,000  Level FlightAware ADS-B
Wed 01:36:26 AM 5.9130 -73.1990 151° Southeast 479 551 35,000  Level FlightAware ADS-B
Wed 01:37:02 AM 5.8540 -73.1660 151° Southeast 479 551 35,000  Level FlightAware ADS-B
Wed 01:37:38 AM 5.7950 -73.1330 151° Southeast 479 551 35,000  Level FlightAware ADS-B
Wed 01:38:18 AM 5.7290 -73.0960 151° Southeast 479 551 35,000  Level FlightAware ADS-B
Wed 01:38:56 AM 5.5750 -73.0200 154° Southeast 482 555 35,000  Level FlightAware ADS-B
Wed 01:39:32 AM 5.5030 -72.9820 152° Southeast 483 556 35,000  Level FlightAware ADS-B
Wed 01:40:04 AM 5.4400 -72.9480 152° Southeast 484 557 35,000  Level FlightAware ADS-B
Wed 01:40:40 AM 5.3690 -72.9100 152° Southeast 485 558 35,000  Level FlightAware ADS-B
Wed 01:41:14 AM 5.3010 -72.8730 152° Southeast 485 558 35,000  Level FlightAware ADS-B
Wed 01:41:50 AM 5.2310 -72.8360 152° Southeast 484 557 35,000  Level FlightAware ADS-B
Wed 01:42:28 AM 5.1550 -72.7950 152° Southeast 483 556 35,000  Level FlightAware ADS-B
Wed 01:43:18 AM 5.0650 -72.7460 152° Southeast 484 557 35,000  Level FlightAware ADS-B
Wed 01:43:54 AM 5.0050 -72.7120 151° Southeast 484 557 35,000  Level FlightAware ADS-B
Wed 01:44:30 AM 4.9460 -72.6790 151° Southeast 484 557 35,000  Level FlightAware ADS-B
Wed 01:45:06 AM 4.8860 -72.6460 151° Southeast 484 557 35,000  Level FlightAware ADS-B
Wed 01:45:42 AM 4.8260 -72.6120 151° Southeast 484 557 35,000  Level FlightAware ADS-B
Wed 01:46:18 AM 4.7660 -72.5790 151° Southeast 484 557 35,000  Level FlightAware ADS-B
Wed 01:46:54 AM 4.7060 -72.5460 151° Southeast 484 557 35,000  Level FlightAware ADS-B
Wed 01:47:30 AM 4.6460 -72.5120 151° Southeast 484 557 35,000  Level FlightAware ADS-B
Wed 01:48:06 AM 4.5860 -72.4790 151° Southeast 484 557 35,000  Level FlightAware ADS-B
Wed 01:48:42 AM 4.5260 -72.4460 151° Southeast 484 557 35,000  Level FlightAware ADS-B
Wed 01:49:18 AM 4.4660 -72.4120 151° Southeast 484 557 35,000  Level FlightAware ADS-B
Wed 01:49:54 AM 4.4060 -72.3790 151° Southeast 484 557 35,000  Level FlightAware ADS-B
Wed 01:50:30 AM 4.3460 -72.3460 151° Southeast 484 557 35,000  Level FlightAware ADS-B
Wed 01:51:06 AM 4.2860 -72.3120 151° Southeast 484 557 35,000  Level FlightAware ADS-B
Wed 01:51:42 AM 4.2260 -72.2790 151° Southeast 484 557 35,000  Level FlightAware ADS-B
Wed 01:52:18 AM 4.1660 -72.2460 151° Southeast 484 557 35,000 Level FlightAware ADS-B
Wed 01:54:00 AM 3.9653 -72.1488 154° Southeast  Level FlightAware Approximate
Wed 01:55:00 AM 3.8555 -72.0785 145° Southeast  Level FlightAware Approximate
Wed 01:56:00 AM 3.7485 -72.0030 145° Southeast  Level FlightAware Approximate
Wed 01:57:00 AM 3.6414 -71.9276 145° Southeast  Level FlightAware Approximate
Wed 01:58:00 AM 3.5343 -71.8522 145° Southeast  Level FlightAware Approximate
Wed 01:59:00 AM 3.4272 -71.7768 145° Southeast  Level FlightAware Approximate
Wed 02:00:00 AM 3.3201 -71.7014 145° Southeast  Level FlightAware Approximate
Wed 02:01:00 AM 3.2130 -71.6261 145° Southeast  Level FlightAware Approximate
Wed 02:02:00 AM 3.1059 -71.5507 145° Southeast  Level FlightAware Approximate
Wed 02:03:00 AM 2.9988 -71.4754 145° Southeast  Level FlightAware Approximate
Wed 02:04:00 AM 2.8917 -71.4001 145° Southeast  Level FlightAware Approximate
Wed 02:05:00 AM 2.7846 -71.3248 145° Southeast  Level FlightAware Approximate
Wed 02:06:00 AM 2.6775 -71.2495 145° Southeast  Level FlightAware Approximate
Wed 02:07:00 AM 2.5704 -71.1742 145° Southeast  Level FlightAware Approximate
Wed 02:08:00 AM 2.4634 -71.0988 145° Southeast  Level FlightAware Approximate
Wed 02:09:00 AM 2.3563 -71.0234 145° Southeast  Level FlightAware Approximate
Wed 02:10:00 AM 2.2493 -70.9481 145° Southeast  Level FlightAware Approximate
Wed 02:11:00 AM 2.1422 -70.8727 145° Southeast  Level FlightAware Approximate
Wed 02:12:00 AM 2.0352 -70.7974 145° Southeast  Level FlightAware Approximate
Wed 02:13:00 AM 1.9281 -70.7220 145° Southeast  Level FlightAware Approximate
Wed 02:14:00 AM 1.8211 -70.6467 145° Southeast  Level FlightAware Approximate
Wed 02:15:00 AM 1.7140 -70.5714 145° Southeast  Level FlightAware Approximate
Wed 02:16:00 AM 1.6069 -70.4961 145° Southeast  Level FlightAware Approximate
Wed 02:17:00 AM 1.4999 -70.4208 145° Southeast  Level FlightAware Approximate
Wed 02:18:00 AM 1.3928 -70.3455 145° Southeast  Level FlightAware Approximate
Wed 02:19:00 AM 1.2857 -70.2702 145° Southeast  Level FlightAware Approximate
Wed 02:20:00 AM 1.1834 -70.1889 138° Southeast  Level FlightAware Approximate
Wed 02:21:00 AM 1.0856 -70.1019 138° Southeast  Level FlightAware Approximate
Wed 02:22:00 AM 0.9879 -70.0148 138° Southeast  Level FlightAware Approximate
Wed 02:23:00 AM 0.8901 -69.9278 138° Southeast  Level FlightAware Approximate
Wed 02:24:00 AM 0.7923 -69.8408 138° Southeast  Level FlightAware Approximate
Wed 02:25:00 AM 0.6945 -69.7538 138° Southeast  Level FlightAware Approximate
Wed 02:26:00 AM 0.5968 -69.6668 138° Southeast  Level FlightAware Approximate
Wed 02:27:00 AM 0.4990 -69.5798 138° Southeast  Level FlightAware Approximate
Wed 02:28:00 AM 0.4012 -69.4928 138° Southeast  Level FlightAware Approximate
Wed 02:29:00 AM 0.3034 -69.4058 138° Southeast  Level FlightAware Approximate
Wed 02:30:00 AM 0.2056 -69.3188 138° Southeast  Level FlightAware Approximate
Wed 02:31:00 AM 0.1079 -69.2318 138° Southeast  Level FlightAware Approximate
Wed 02:32:00 AM 0.0101 -69.1448 138° Southeast  Level FlightAware Approximate
Wed 02:33:00 AM -0.0877 -69.0578 138° Southeast  Level FlightAware Approximate
Wed 02:34:00 AM -0.1855 -68.9708 138° Southeast  Level FlightAware Approximate
Wed 02:35:00 AM -0.2833 -68.8839 138° Southeast  Level FlightAware Approximate
Wed 02:36:00 AM -0.3810 -68.7969 138° Southeast  Level FlightAware Approximate
Wed 02:37:00 AM -0.4788 -68.7099 138° Southeast  Level FlightAware Approximate
Wed 02:38:00 AM -0.5766 -68.6229 138° Southeast  Level FlightAware Approximate
Wed 02:39:00 AM -0.6744 -68.5359 138° Southeast  Level FlightAware Approximate
Wed 02:40:00 AM -0.7722 -68.4489 138° Southeast  Level FlightAware Approximate
Wed 02:41:00 AM -0.8699 -68.3618 138° Southeast  Level FlightAware Approximate
Wed 02:42:00 AM -0.9677 -68.2748 138° Southeast  Level FlightAware Approximate
Wed 02:43:00 AM -1.0655 -68.1878 138° Southeast  Level FlightAware Approximate
Wed 02:44:00 AM -1.1632 -68.1008 138° Southeast  Level FlightAware Approximate
Wed 02:45:00 AM -1.2610 -68.0137 138° Southeast  Level FlightAware Approximate
Wed 02:46:00 AM -1.3588 -67.9267 138° Southeast  Level FlightAware Approximate
Wed 02:47:00 AM -1.4565 -67.8397 138° Southeast  Level FlightAware Approximate
Wed 02:48:00 AM -1.5543 -67.7526 138° Southeast  Level FlightAware Approximate
Wed 02:49:00 AM -1.6521 -67.6655 138° Southeast  Level FlightAware Approximate
Wed 02:50:00 AM -1.7498 -67.5785 138° Southeast  Level FlightAware Approximate
Wed 02:51:00 AM -1.8476 -67.4914 138° Southeast  Level FlightAware Approximate
Wed 02:52:00 AM -1.9453 -67.4043 138° Southeast  Level FlightAware Approximate
Wed 02:53:00 AM -2.0430 -67.3172 138° Southeast  Level FlightAware Approximate
Wed 02:54:00 AM -2.1408 -67.2301 138° Southeast  Level FlightAware Approximate
Wed 02:55:00 AM -2.2385 -67.1430 138° Southeast  Level FlightAware Approximate
Wed 02:56:00 AM -2.3362 -67.0558 138° Southeast  Level FlightAware Approximate
Wed 02:57:00 AM -2.4339 -66.9687 138° Southeast  Level FlightAware Approximate
Wed 02:58:00 AM -2.5316 -66.8815 138° Southeast  Level FlightAware Approximate
Wed 02:59:00 AM -2.6293 -66.7944 138° Southeast  Level FlightAware Approximate
Wed 03:00:00 AM -2.7271 -66.7072 138° Southeast  Level FlightAware Approximate
Wed 03:01:00 AM -2.8247 -66.6200 138° Southeast  Level FlightAware Approximate
Wed 03:02:00 AM -2.9224 -66.5328 138° Southeast  Level FlightAware Approximate
Wed 03:03:00 AM -3.0201 -66.4455 138° Southeast  Level FlightAware Approximate
Wed 03:04:00 AM -3.1178 -66.3583 138° Southeast  Level FlightAware Approximate
Wed 03:05:00 AM -3.2155 -66.2710 138° Southeast  Level FlightAware Approximate
Wed 03:06:00 AM -3.3131 -66.1838 138° Southeast  Level FlightAware Approximate
Wed 03:07:00 AM -3.4108 -66.0965 138° Southeast  Level FlightAware Approximate
Wed 03:08:00 AM -3.5084 -66.0092 138° Southeast  Level FlightAware Approximate
Wed 03:09:00 AM -3.6060 -65.9218 138° Southeast  Level FlightAware Approximate
Wed 03:10:00 AM -3.7037 -65.8345 138° Southeast  Level FlightAware Approximate
Wed 03:11:00 AM -3.8013 -65.7471 138° Southeast  Level FlightAware Approximate
Wed 03:12:00 AM -3.8989 -65.6597 138° Southeast  Level FlightAware Approximate
Wed 03:13:00 AM -3.9965 -65.5723 138° Southeast  Level FlightAware Approximate
Wed 03:14:00 AM -4.0941 -65.4849 138° Southeast  Level FlightAware Approximate
Wed 03:15:00 AM -4.1917 -65.3974 138° Southeast  Level FlightAware Approximate
Wed 03:16:00 AM -4.2892 -65.3100 138° Southeast  Level FlightAware Approximate
Wed 03:17:00 AM -4.3868 -65.2225 138° Southeast  Level FlightAware Approximate
Wed 03:18:00 AM -4.4844 -65.1350 138° Southeast  Level FlightAware Approximate
Wed 03:19:00 AM -4.5819 -65.0474 138° Southeast  Level FlightAware Approximate
Wed 03:20:00 AM -4.6794 -64.9599 138° Southeast  Level FlightAware Approximate
Wed 03:21:00 AM -4.7769 -64.8723 138° Southeast  Level FlightAware Approximate
Wed 03:22:00 AM -4.8745 -64.7847 138° Southeast  Level FlightAware Approximate
Wed 03:23:00 AM -4.9720 -64.6970 138° Southeast  Level FlightAware Approximate
Wed 03:24:00 AM -5.0694 -64.6094 138° Southeast  Level FlightAware Approximate
Wed 03:25:00 AM -5.1669 -64.5217 138° Southeast  Level FlightAware Approximate
Wed 03:26:00 AM -5.2644 -64.4340 138° Southeast  Level FlightAware Approximate
Wed 03:27:00 AM -5.3618 -64.3462 138° Southeast  Level FlightAware Approximate
Wed 03:28:00 AM -5.4593 -64.2584 138° Southeast  Level FlightAware Approximate
Wed 03:29:00 AM -5.5567 -64.1706 138° Southeast  Level FlightAware Approximate
Wed 03:30:00 AM -5.6541 -64.0828 138° Southeast  Level FlightAware Approximate
Wed 03:31:00 AM -5.7515 -63.9949 138° Southeast  Level FlightAware Approximate
Wed 03:32:00 AM -5.8489 -63.9071 138° Southeast  Level FlightAware Approximate
Wed 03:33:00 AM -5.9462 -63.8191 138° Southeast  Level FlightAware Approximate
Wed 03:34:00 AM -6.0436 -63.7312 138° Southeast  Level FlightAware Approximate
Wed 03:35:00 AM -6.1409 -63.6432 138° Southeast  Level FlightAware Approximate
Wed 03:36:00 AM -6.2383 -63.5552 138° Southeast  Level FlightAware Approximate
Wed 03:37:00 AM -6.3356 -63.4671 138° Southeast  Level FlightAware Approximate
Wed 03:38:00 AM -6.4329 -63.3791 138° Southeast  Level FlightAware Approximate
Wed 03:39:00 AM -6.5302 -63.2909 138° Southeast  Level FlightAware Approximate
Wed 03:40:00 AM -6.6274 -63.2028 138° Southeast  Level FlightAware Approximate
Wed 03:41:00 AM -6.7247 -63.1146 138° Southeast  Level FlightAware Approximate
Wed 03:42:00 AM -6.8219 -63.0264 138° Southeast  Level FlightAware Approximate
Wed 03:43:00 AM -6.9191 -62.9381 138° Southeast  Level FlightAware Approximate
Wed 03:44:00 AM -7.0163 -62.8498 138° Southeast  Level FlightAware Approximate
Wed 03:45:00 AM -7.1135 -62.7615 138° Southeast  Level FlightAware Approximate
Wed 03:46:00 AM -7.2107 -62.6731 138° Southeast  Level FlightAware Approximate
Wed 03:47:00 AM -7.3079 -62.5847 138° Southeast  Level FlightAware Approximate
Wed 03:48:00 AM -7.4050 -62.4963 138° Southeast  Level FlightAware Approximate
Wed 03:49:00 AM -7.5021 -62.4078 138° Southeast  Level FlightAware Approximate
Wed 03:50:00 AM -7.5992 -62.3193 138° Southeast  Level FlightAware Approximate
Wed 03:51:00 AM -7.6963 -62.2307 138° Southeast  Level FlightAware Approximate
Wed 03:52:00 AM -7.7934 -62.1421 138° Southeast  Level FlightAware Approximate
Wed 03:53:00 AM -7.8904 -62.0535 138° Southeast  Level FlightAware Approximate
Wed 03:54:00 AM -7.9875 -61.9648 138° Southeast  Level FlightAware Approximate
Wed 03:55:00 AM -8.0845 -61.8761 138° Southeast  Level FlightAware Approximate
Wed 03:56:00 AM -8.1814 -61.7873 138° Southeast  Level FlightAware Approximate
Wed 03:57:00 AM -8.2784 -61.6985 138° Southeast  Level FlightAware Approximate
Wed 03:58:00 AM -8.3754 -61.6096 138° Southeast  Level FlightAware Approximate
Wed 03:59:00 AM -8.4723 -61.5207 138° Southeast  Level FlightAware Approximate
Wed 04:00:00 AM -8.5692 -61.4318 138° Southeast  Level FlightAware Approximate
Wed 04:01:00 AM -8.6661 -61.3428 138° Southeast  Level FlightAware Approximate
Wed 04:02:00 AM -8.7630 -61.2538 138° Southeast  Level FlightAware Approximate
Wed 04:03:00 AM -8.8598 -61.1647 138° Southeast  Level FlightAware Approximate
Wed 04:04:00 AM -8.9566 -61.0756 138° Southeast  Level FlightAware Approximate
Wed 04:05:00 AM -9.0535 -60.9864 138° Southeast  Level FlightAware Approximate
Wed 04:06:00 AM -9.1503 -60.8971 138° Southeast  Level FlightAware Approximate
Wed 04:07:00 AM -9.2470 -60.8079 138° Southeast  Level FlightAware Approximate
Wed 04:08:00 AM -9.3438 -60.7186 138° Southeast  Level FlightAware Approximate
Wed 04:09:00 AM -9.4405 -60.6292 138° Southeast  Level FlightAware Approximate
Wed 04:10:00 AM -9.5372 -60.5398 138° Southeast  Level FlightAware Approximate
Wed 04:11:00 AM -9.6338 -60.4503 138° Southeast  Level FlightAware Approximate
Wed 04:12:00 AM -9.7305 -60.3608 138° Southeast  Level FlightAware Approximate
Wed 04:13:00 AM -9.8271 -60.2712 138° Southeast  Level FlightAware Approximate
Wed 04:14:00 AM -9.9237 -60.1816 138° Southeast  Level FlightAware Approximate
Wed 04:15:00 AM -10.0203 -60.0919 138° Southeast  Level FlightAware Approximate
Wed 04:16:00 AM -10.1169 -60.0022 138° Southeast  Level FlightAware Approximate
Wed 04:17:00 AM -10.2134 -59.9124 138° Southeast  Level FlightAware Approximate
Wed 04:18:00 AM -10.3099 -59.8225 138° Southeast  Level FlightAware Approximate
Wed 04:19:00 AM -10.4064 -59.7326 138° Southeast  Level FlightAware Approximate
Wed 04:20:00 AM -10.5028 -59.6427 137° Southeast  Level FlightAware Approximate
Wed 04:21:00 AM -10.5993 -59.5527 137° Southeast  Level FlightAware Approximate
Wed 04:22:00 AM -10.6957 -59.4626 137° Southeast  Level FlightAware Approximate
Wed 04:23:00 AM -10.7921 -59.3725 137° Southeast  Level FlightAware Approximate
Wed 04:24:00 AM -10.8884 -59.2823 137° Southeast  Level FlightAware Approximate
Wed 04:25:00 AM -10.9848 -59.1921 137° Southeast  Level FlightAware Approximate
Wed 04:26:00 AM -11.0811 -59.1017 137° Southeast  Level FlightAware Approximate
Wed 04:27:00 AM -11.1773 -59.0114 137° Southeast  Level FlightAware Approximate
Wed 04:28:00 AM -11.2736 -58.9210 137° Southeast  Level FlightAware Approximate
Wed 04:29:00 AM -11.3698 -58.8305 137° Southeast  Level FlightAware Approximate
Wed 04:30:00 AM -11.4660 -58.7399 137° Southeast  Level FlightAware Approximate
Wed 04:31:00 AM -11.5622 -58.6493 137° Southeast  Level FlightAware Approximate
Wed 04:32:00 AM -11.6583 -58.5587 137° Southeast  Level FlightAware Approximate
Wed 04:33:00 AM -11.7544 -58.4680 137° Southeast  Level FlightAware Approximate
Wed 04:34:00 AM -11.8505 -58.3772 137° Southeast  Level FlightAware Approximate
Wed 04:35:00 AM -11.9466 -58.2863 137° Southeast  Level FlightAware Approximate
Wed 04:36:00 AM -12.0426 -58.1954 137° Southeast  Level FlightAware Approximate
Wed 04:37:00 AM -12.1386 -58.1044 137° Southeast  Level FlightAware Approximate
Wed 04:38:00 AM -12.2345 -58.0134 137° Southeast  Level FlightAware Approximate
Wed 04:39:00 AM -12.3305 -57.9222 137° Southeast  Level FlightAware Approximate
Wed 04:40:00 AM -12.4263 -57.8311 137° Southeast  Level FlightAware Approximate
Wed 04:41:00 AM -12.5222 -57.7398 137° Southeast  Level FlightAware Approximate
Wed 04:42:00 AM -12.6181 -57.6485 137° Southeast  Level FlightAware Approximate
Wed 04:43:00 AM -12.7139 -57.5571 137° Southeast  Level FlightAware Approximate
Wed 04:44:00 AM -12.8097 -57.4656 137° Southeast  Level FlightAware Approximate
Wed 04:45:00 AM -12.9054 -57.3741 137° Southeast  Level FlightAware Approximate
Wed 04:46:00 AM -13.0011 -57.2825 137° Southeast  Level FlightAware Approximate
Wed 04:47:00 AM -13.0968 -57.1909 137° Southeast  Level FlightAware Approximate
Wed 04:48:00 AM -13.1924 -57.0991 137° Southeast  Level FlightAware Approximate
Wed 04:49:00 AM -13.2881 -57.0073 137° Southeast  Level FlightAware Approximate
Wed 04:50:00 AM -13.3837 -56.9154 137° Southeast  Level FlightAware Approximate
Wed 04:51:00 AM -13.4792 -56.8235 137° Southeast  Level FlightAware Approximate
Wed 04:52:00 AM -13.5747 -56.7315 137° Southeast  Level FlightAware Approximate
Wed 04:53:00 AM -13.6702 -56.6394 137° Southeast  Level FlightAware Approximate
Wed 04:54:00 AM -13.7657 -56.5472 137° Southeast  Level FlightAware Approximate
Wed 04:55:00 AM -13.8611 -56.4549 137° Southeast  Level FlightAware Approximate
Wed 04:56:00 AM -13.9565 -56.3626 137° Southeast  Level FlightAware Approximate
Wed 04:57:00 AM -14.0518 -56.2702 137° Southeast  Level FlightAware Approximate
Wed 04:58:00 AM -14.1471 -56.1777 137° Southeast  Level FlightAware Approximate
Wed 04:59:00 AM -14.2424 -56.0852 137° Southeast  Level FlightAware Approximate
Wed 05:00:00 AM -14.3377 -55.9925 137° Southeast  Level FlightAware Approximate
Wed 05:01:00 AM -14.4329 -55.8998 137° Southeast  Level FlightAware Approximate
Wed 05:02:00 AM -14.5280 -55.8070 137° Southeast  Level FlightAware Approximate
Wed 05:03:00 AM -14.6232 -55.7141 137° Southeast  Level FlightAware Approximate
Wed 05:04:00 AM -14.7183 -55.6212 137° Southeast  Level FlightAware Approximate
Wed 05:05:00 AM -14.8133 -55.5281 137° Southeast  Level FlightAware Approximate
Wed 05:06:00 AM -14.9083 -55.4350 137° Southeast  Level FlightAware Approximate
Wed 05:07:00 AM -15.0033 -55.3418 137° Southeast  Level FlightAware Approximate
Wed 05:08:00 AM -15.0983 -55.2485 137° Southeast  Level FlightAware Approximate
Wed 05:09:00 AM -15.1932 -55.1552 136° Southeast  Level FlightAware Approximate
Wed 05:10:00 AM -15.2880 -55.0617 136° Southeast  Level FlightAware Approximate
Wed 05:11:00 AM -15.3829 -54.9682 136° Southeast  Level FlightAware Approximate
Wed 05:12:00 AM -15.4777 -54.8746 136° Southeast  Level FlightAware Approximate
Wed 05:13:00 AM -15.5724 -54.7809 136° Southeast  Level FlightAware Approximate
Wed 05:14:00 AM -15.6671 -54.6871 136° Southeast  Level FlightAware Approximate
Wed 05:15:00 AM -15.7618 -54.5932 136° Southeast  Level FlightAware Approximate
Wed 05:16:00 AM -15.8564 -54.4992 136° Southeast  Level FlightAware Approximate
Wed 05:17:00 AM -15.9510 -54.4052 136° Southeast  Level FlightAware Approximate
Wed 05:18:00 AM -16.0456 -54.3110 136° Southeast  Level FlightAware Approximate
Wed 05:19:00 AM -16.1401 -54.2168 136° Southeast  Level FlightAware Approximate
Wed 05:20:00 AM -16.2346 -54.1225 136° Southeast  Level FlightAware Approximate
Wed 05:21:00 AM -16.3290 -54.0281 136° Southeast  Level FlightAware Approximate
Wed 05:22:00 AM -16.4234 -53.9336 136° Southeast  Level FlightAware Approximate
Wed 05:23:00 AM -16.5177 -53.8390 136° Southeast  Level FlightAware Approximate
Wed 05:24:00 AM -16.6120 -53.7443 136° Southeast  Level FlightAware Approximate
Wed 05:25:00 AM -16.7063 -53.6495 136° Southeast  Level FlightAware Approximate
Wed 05:26:00 AM -16.8005 -53.5546 136° Southeast  Level FlightAware Approximate
Wed 05:27:00 AM -16.8946 -53.4596 136° Southeast  Level FlightAware Approximate
Wed 05:28:00 AM -16.9888 -53.3646 136° Southeast  Level FlightAware Approximate
Wed 05:29:00 AM -17.0828 -53.2694 136° Southeast  Level FlightAware Approximate
Wed 05:30:00 AM -17.1769 -53.1741 136° Southeast  Level FlightAware Approximate
Wed 05:31:00 AM -17.2709 -53.0788 136° Southeast  Level FlightAware Approximate
Wed 05:32:00 AM -17.3648 -52.9833 136° Southeast  Level FlightAware Approximate
Wed 05:33:00 AM -17.4587 -52.8878 136° Southeast  Level FlightAware Approximate
Wed 05:34:00 AM -17.5526 -52.7921 136° Southeast  Level FlightAware Approximate
Wed 05:35:00 AM -17.6464 -52.6964 136° Southeast  Level FlightAware Approximate
Wed 05:36:00 AM -17.7402 -52.6006 136° Southeast  Level FlightAware Approximate
Wed 05:37:00 AM -17.8339 -52.5046 136° Southeast  Level FlightAware Approximate
Wed 05:38:00 AM -17.9275 -52.4086 136° Southeast  Level FlightAware Approximate
Wed 05:39:00 AM -18.0212 -52.3124 136° Southeast  Level FlightAware Approximate
Wed 05:40:00 AM -18.1147 -52.2161 136° Southeast  Level FlightAware Approximate
Wed 05:41:00 AM -18.2083 -52.1198 136° Southeast  Level FlightAware Approximate
Wed 05:42:00 AM -18.3018 -52.0233 136° Southeast  Level FlightAware Approximate
Wed 05:43:00 AM -18.3952 -51.9268 136° Southeast  Level FlightAware Approximate
Wed 05:44:00 AM -18.4886 -51.8301 136° Southeast  Level FlightAware Approximate
Wed 05:44:00 AM -18.8450 -50.8390 136° Southeast 498 573 37,000  Level FlightAware ADS-B
Wed 05:44:54 AM -18.9210 -50.7550 134° Southeast 498 573 37,000  Level FlightAware ADS-B
Wed 05:45:00 AM -18.5819 -51.7333 136° Southeast  Level FlightAware Approximate
Wed 05:45:30 AM -18.9700 -50.7000 133° Southeast 498 573 37,000  Level FlightAware ADS-B
Wed 05:46:12 AM -19.0580 -50.6080 135° Southeast 505 581 37,000  Level FlightAware ADS-B
Wed 05:46:50 AM -19.1180 -50.5420 134° Southeast 506 582 37,000  Level FlightAware ADS-B
Wed 05:47:26 AM -19.1780 -50.4760 134° Southeast 504 580 37,000  Level FlightAware ADS-B
Wed 05:47:58 AM -19.2290 -50.4200 134° Southeast 503 579 37,000  Level FlightAware ADS-B
Wed 05:48:32 AM -19.2840 -50.3600 134° Southeast 502 578 37,000  Level FlightAware ADS-B
Wed 05:49:10 AM -19.3460 -50.2920 134° Southeast 500 575 37,000  Level FlightAware ADS-B
Wed 05:49:42 AM -19.3970 -50.2360 134° Southeast 501 577 37,000  Level FlightAware ADS-B
Wed 05:50:18 AM -19.4550 -50.1720 134° Southeast 501 577 37,000  Level FlightAware ADS-B
Wed 05:50:55 AM -19.5140 -50.1080 134° Southeast 501 577 37,000  Level FlightAware ADS-B
Wed 05:51:30 AM -19.5710 -50.0450 134° Southeast 502 578 37,000  Level FlightAware ADS-B
Wed 05:52:02 AM -19.6220 -49.9880 134° Southeast 503 579 37,000  Level FlightAware ADS-B
Wed 05:52:40 AM -19.6820 -49.9220 134° Southeast 502 578 37,000  Level FlightAware ADS-B
Wed 05:53:14 AM -19.7380 -49.8620 135° Southeast 499 574 37,000  Level FlightAware ADS-B
Wed 05:53:50 AM -19.7940 -49.8000 134° Southeast 500 575 37,000  Level FlightAware ADS-B
Wed 05:54:26 AM -19.8550 -49.7340 135° Southeast 501 577 37,000  Level FlightAware ADS-B
Wed 05:54:58 AM -19.9060 -49.6780 134° Southeast 501 577 37,000  Level FlightAware ADS-B
Wed 05:55:34 AM -19.9650 -49.6130 134° Southeast 501 577 37,000  Level FlightAware ADS-B
Wed 05:56:10 AM -20.0240 -49.5490 134° Southeast 501 577 37,000  Level FlightAware ADS-B
Wed 05:56:42 AM -20.0760 -49.4910 134° Southeast 502 578 37,000  Level FlightAware ADS-B
Wed 05:57:18 AM -20.1330 -49.4290 134° Southeast 503 579 37,000  Level FlightAware ADS-B
Wed 05:57:57 AM -20.1950 -49.3600 134° Southeast 503 579 37,000  Level FlightAware ADS-B
Wed 05:58:28 AM -20.2460 -49.3040 134° Southeast 504 580 37,000  Level FlightAware ADS-B
Wed 05:59:03 AM -20.3030 -49.2410 134° Southeast 505 581 37,000  Level FlightAware ADS-B
Wed 05:59:38 AM -20.3610 -49.1780 134° Southeast 505 581 37,000  Level FlightAware ADS-B
Wed 06:00:16 AM -20.4220 -49.1100 134° Southeast 507 583 37,000  Level FlightAware ADS-B
Wed 06:00:48 AM -20.4740 -49.0510 133° Southeast 507 583 37,000  Level FlightAware ADS-B
Wed 06:01:26 AM -20.5360 -48.9830 134° Southeast 507 583 37,000  Level FlightAware ADS-B
Wed 06:01:57 AM -20.5840 -48.9300 134° Southeast 507 583 37,000  Level FlightAware ADS-B
Wed 06:02:34 AM -20.6470 -48.8600 134° Southeast 509 586 37,000  Level FlightAware ADS-B
Wed 06:03:09 AM -20.7030 -48.7970 134° Southeast 510 587 37,000  Level FlightAware ADS-B
Wed 06:03:42 AM -20.7580 -48.7360 134° Southeast 511 588 37,000  Level FlightAware ADS-B
Wed 06:04:20 AM -20.8200 -48.6660 133° Southeast 512 589 37,000  Level FlightAware ADS-B
Wed 06:04:56 AM -20.8790 -48.6000 134° Southeast 513 590 37,000  Level FlightAware ADS-B
Wed 06:05:28 AM -20.9320 -48.5410 134° Southeast 515 593 37,000  Level FlightAware ADS-B
Wed 06:06:04 AM -20.9910 -48.4750 134° Southeast 514 592 37,000  Level FlightAware ADS-B
Wed 06:06:38 AM -21.0460 -48.4120 133° Southeast 513 590 37,000  Level FlightAware ADS-B
Wed 06:07:16 AM -21.1080 -48.3430 134° Southeast 513 590 37,000  Level FlightAware ADS-B
Wed 06:07:48 AM -21.1610 -48.2830 133° Southeast 514 592 37,000  Level FlightAware ADS-B
Wed 06:08:24 AM -21.2190 -48.2170 133° Southeast 515 593 37,000  Level FlightAware ADS-B
Wed 06:09:00 AM -21.2780 -48.1500 133° Southeast 516 594 37,000  Level FlightAware ADS-B
Wed 06:09:32 AM -21.3310 -48.0900 133° Southeast 517 595 37,000  Level FlightAware ADS-B
Wed 06:10:10 AM -21.3930 -48.0200 134° Southeast 515 593 37,000  Level FlightAware ADS-B
Wed 06:10:46 AM -21.4590 -47.9600 140° Southeast 508 585 37,000  Level FlightAware ADS-B
Wed 06:11:02 AM -21.4880 -47.9360 142° Southeast 508 585 37,000  Level FlightAware ADS-B
Wed 06:11:58 AM -21.5940 -47.8470 142° Southeast 512 589 37,000  Level FlightAware ADS-B
Wed 06:12:30 AM -21.6530 -47.7970 142° Southeast 514 592 37,000 -87 Level FlightAware ADS-B
Wed 06:13:07 AM -21.7220 -47.7390 142° Southeast 516 594 36,900 -771 Descending FlightAware ADS-B
Wed 06:13:40 AM -21.7840 -47.6860 142° Southeast 508 585 36,100 -2,197 Descending FlightAware ADS-B
Wed 06:14:18 AM -21.8530 -47.6270 142° Southeast 513 590 34,300 -2,919 Descending FlightAware ADS-B
Wed 06:14:54 AM -21.9210 -47.5690 142° Southeast 514 592 32,500 -2,687 Descending FlightAware ADS-B
Wed 06:15:25 AM -21.9780 -47.5210 142° Southeast 508 585 31,300 -2,149 Descending FlightAware ADS-B
Wed 06:16:01 AM -22.0430 -47.4650 141° Southeast 498 573 30,100 -2,000 Descending FlightAware ADS-B
Wed 06:16:34 AM -22.1030 -47.4140 142° Southeast 489 563 29,000 -2,113 Descending FlightAware ADS-B
Wed 06:17:12 AM -22.1710 -47.3560 142° Southeast 481 554 27,600 -1,973 Descending FlightAware ADS-B
Wed 06:17:47 AM -22.2260 -47.3090 142° Southeast 476 548 26,600 -1,944 Descending FlightAware ADS-B
Wed 06:18:23 AM -22.2920 -47.2530 142° Southeast 468 539 25,300 -2,083 Descending FlightAware ADS-B
Wed 06:18:59 AM -22.3540 -47.2000 142° Southeast 462 532 24,100 -1,941 Descending FlightAware ADS-B
Wed 06:19:31 AM -22.4080 -47.1540 142° Southeast 456 525 23,100 -1,941 Descending FlightAware ADS-B
Wed 06:20:07 AM -22.4650 -47.1050 142° Southeast 448 516 21,900 -1,886 Descending FlightAware ADS-B
Wed 06:20:41 AM -22.5180 -47.0590 141° Southeast 441 507 20,900 -1,970 Descending FlightAware ADS-B
Wed 06:21:14 AM -22.5750 -47.0150 145° Southeast 426 490 19,700 -2,197 Descending FlightAware ADS-B
Wed 06:21:52 AM -22.6370 -46.9780 151° Southeast 423 487 18,300 -2,301 Descending FlightAware ADS-B
Wed 06:22:27 AM -22.6990 -46.9430 152° Southeast 417 480 16,900 -1,886 Descending FlightAware ADS-B
Wed 06:23:02 AM -22.7580 -46.9090 152° Southeast 391 450 16,100 -1,800 Descending FlightAware ADS-B
Wed 06:23:37 AM -22.8110 -46.8790 152° Southeast 372 428 14,800 -2,143 Descending FlightAware ADS-B
Wed 06:24:12 AM -22.8640 -46.8490 152° Southeast 371 427 13,600 -1,760 Descending FlightAware ADS-B
Wed 06:24:52 AM -22.9260 -46.8150 153° Southeast 366 421 12,600 -1,520 Descending FlightAware ADS-B
Wed 06:25:27 AM -22.9770 -46.7860 152° Southeast 362 417 11,700 -1,457 Descending FlightAware ADS-B
Wed 06:26:02 AM -23.0300 -46.7570 153° Southeast 355 409 10,900 -1,029 Descending FlightAware ADS-B
Wed 06:26:37 AM -23.0790 -46.7290 152° Southeast 337 388 10,500 -686 Descending FlightAware ADS-B
Wed 06:27:12 AM -23.1270 -46.7020 153° Southeast 315 362 10,100 -720 Descending FlightAware ADS-B
Wed 06:27:27 AM -23.1450 -46.6920 153° Southeast 312 359 9,900 -1,000 Descending FlightAware ADS-B
Wed 06:27:42 AM -23.1620 -46.6760 139° Southeast 321 369 9,600 -1,200 Descending FlightAware ADS-B
Wed 06:27:52 AM -23.1700 -46.6620 122° Southeast 325 374 9,400 -1,000 Descending FlightAware ADS-B
Wed 06:28:12 AM -23.1810 -46.6330 112° Southeast 323 372 9,100 -1,050 Descending FlightAware ADS-B
Wed 06:28:32 AM -23.1920 -46.6030 112° Southeast 318 366 8,700 -900 Descending FlightAware ADS-B
Wed 06:28:52 AM -23.2010 -46.5750 109° East 314 361 8,500 -682 Descending FlightAware ADS-B
Wed 06:29:16 AM -23.2140 -46.5370 110° East 299 344 8,200 -955 Descending FlightAware ADS-B
Wed 06:29:36 AM -23.2230 -46.5100 110° East 292 336 7,800 -1,000 Descending FlightAware ADS-B
Wed 06:29:46 AM -23.2270 -46.4970 109° East 289 333 7,700 -400 Descending FlightAware ADS-B
Wed 06:30:06 AM -23.2360 -46.4710 111° Southeast 265 305 7,600 -391 Descending FlightAware ADS-B
Wed 06:30:32 AM -23.2470 -46.4400 111° Southeast 257 296 7,400 -391 Descending FlightAware ADS-B
Wed 06:30:52 AM -23.2550 -46.4180 112° Southeast 239 275 7,300 -450 Descending FlightAware ADS-B
Wed 06:31:12 AM -23.2620 -46.3960 109° East 234 269 7,100 -450 Descending FlightAware ADS-B
Wed 06:31:32 AM -23.2700 -46.3740 112° Southeast 229 264 7,000 -400 Descending FlightAware ADS-B
Wed 06:31:57 AM -23.2790 -46.3460 109° East 226 260 6,800 -450 Descending FlightAware ADS-B
Wed 06:32:12 AM -23.2850 -46.3300 112° Southeast 217 250 6,700 -450 Descending FlightAware ADS-B
Wed 06:32:37 AM -23.2930 -46.3060 110° East 202 232 6,500 -533 Descending FlightAware ADS-B
Wed 06:32:57 AM -23.3000 -46.2860 111° Southeast 199 229 6,300 -450 Descending FlightAware ADS-B
Wed 06:33:17 AM -23.3060 -46.2670 109° East 200 230 6,200 -387 Descending FlightAware ADS-B
Wed 06:33:28 AM -23.3100 -46.2580 116° Southeast 199 229 6,100 -600 Descending FlightAware ADS-B
Wed 06:33:37 AM -23.3160 -46.2520 137° Southeast 196 226 6,000 -316 Descending FlightAware ADS-B
Wed 06:33:47 AM -23.3220 -46.2480 149° Southeast 192 221 6,000  Level FlightAware ADS-B
Wed 06:33:52 AM -23.3280 -46.2470 171° South 179 206 6,000  Level FlightAware ADS-B
Wed 06:34:12 AM -23.3440 -46.2520 196° South 176 203 6,000  Level FlightAware ADS-B
Wed 06:34:32 AM -23.3560 -46.2610 215° Southwest 168 193 6,000 -300 Level FlightAware ADS-B
Wed 06:34:52 AM -23.3700 -46.2740 220° Southwest 168 193 5,800 -750 Descending FlightAware ADS-B
Wed 06:35:12 AM -23.3810 -46.2850 223° Southwest 163 188 5,500 -889 Descending FlightAware ADS-B
Wed 06:35:19 AM -23.3840 -46.2890 231° Southwest 161 185 5,400 -900 Descending FlightAware ADS-B
Wed 06:35:32 AM -23.3880 -46.2990 246° West 160 184 5,200 -783 Descending FlightAware ADS-B
Wed 06:35:42 AM -23.3900 -46.3090 258° West 157 181 5,100 -686 Descending FlightAware ADS-B
Wed 06:36:07 AM -23.3950 -46.3260 252° West 147 169 4,800 -800 Descending FlightAware ADS-B
Wed 06:36:27 AM -23.3990 -46.3400 253° West 147 169 4,500 -857 Descending FlightAware ADS-B
Wed 06:36:42 AM -23.4020 -46.3500 252° West 146 168 4,300 -833 Descending FlightAware ADS-B
Wed 06:37:03 AM -23.4060 -46.3670 256° West 150 173 4,000 -800 Descending FlightAware ADS-B
Wed 06:37:27 AM -23.4110 -46.3840 252° West 151 174 3,700 -857 Descending FlightAware ADS-B
Wed 06:37:52 AM -23.4160 -46.4030 254° West 148 170 3,300 -913 Descending FlightAware ADS-B
Wed 06:38:13 AM -23.4200 -46.4180 254° West 148 170 3,000 -750 Descending FlightAware ADS-B
Wed 06:38:32 AM -23.4240 -46.4320 253° West 151 174 2,800 -769 Descending FlightAware ADS-B
Wed 06:38:52 AM -23.4280 -46.4470 254° West 149 171 2,500 -655 Descending FlightAware ADS-B
Wed 06:39:27 AM -23.4340 -46.4700 254° West 149 171 2,200 -514 Descending FlightAware ADS-B

Login

Don't have an account? Register now (free) for customized features, flight alerts, and more!